sensor_id;sensor_type;location;lat;lon;timestamp;temperature;humidity
44063;DHT22;29727;47.606;19.130;2023-02-22T00:00:39;11.50;68.40
44063;DHT22;29727;47.606;19.130;2023-02-22T00:03:23;11.40;68.70
44063;DHT22;29727;47.606;19.130;2023-02-22T00:05:52;11.40;69.10
44063;DHT22;29727;47.606;19.130;2023-02-22T00:08:21;11.30;69.30
44063;DHT22;29727;47.606;19.130;2023-02-22T00:10:48;11.30;69.50
44063;DHT22;29727;47.606;19.130;2023-02-22T00:13:18;11.20;69.70
44063;DHT22;29727;47.606;19.130;2023-02-22T00:15:44;11.20;69.70
44063;DHT22;29727;47.606;19.130;2023-02-22T00:18:15;11.20;69.80
44063;DHT22;29727;47.606;19.130;2023-02-22T00:20:41;11.30;69.60
44063;DHT22;29727;47.606;19.130;2023-02-22T00:23:12;11.30;69.40
44063;DHT22;29727;47.606;19.130;2023-02-22T00:25:38;11.30;69.10
44063;DHT22;29727;47.606;19.130;2023-02-22T00:28:04;11.30;68.70
44063;DHT22;29727;47.606;19.130;2023-02-22T00:30:32;11.30;68.50
44063;DHT22;29727;47.606;19.130;2023-02-22T00:32:59;11.30;68.50
44063;DHT22;29727;47.606;19.130;2023-02-22T00:35:28;11.30;68.20
44063;DHT22;29727;47.606;19.130;2023-02-22T00:37:56;11.30;68.20
44063;DHT22;29727;47.606;19.130;2023-02-22T00:40:27;11.30;68.20
44063;DHT22;29727;47.606;19.130;2023-02-22T00:42:55;11.20;68.20
44063;DHT22;29727;47.606;19.130;2023-02-22T00:45:23;11.20;68.90
44063;DHT22;29727;47.606;19.130;2023-02-22T00:47:49;11.20;68.10
44063;DHT22;29727;47.606;19.130;2023-02-22T00:50:17;11.10;68.20
44063;DHT22;29727;47.606;19.130;2023-02-22T00:52:43;11.10;69.00
44063;DHT22;29727;47.606;19.130;2023-02-22T00:55:14;11.00;69.70
44063;DHT22;29727;47.606;19.130;2023-02-22T00:57:40;11.00;69.90
44063;DHT22;29727;47.606;19.130;2023-02-22T01:00:07;10.90;70.70
44063;DHT22;29727;47.606;19.130;2023-02-22T01:02:41;10.70;71.20
44063;DHT22;29727;47.606;19.130;2023-02-22T01:05:11;10.70;71.40
44063;DHT22;29727;47.606;19.130;2023-02-22T01:07:41;10.70;71.70
44063;DHT22;29727;47.606;19.130;2023-02-22T01:10:08;10.70;71.90
44063;DHT22;29727;47.606;19.130;2023-02-22T01:12:35;10.60;72.00
44063;DHT22;29727;47.606;19.130;2023-02-22T01:15:03;10.70;72.10
44063;DHT22;29727;47.606;19.130;2023-02-22T01:17:29;10.70;72.10
44063;DHT22;29727;47.606;19.130;2023-02-22T01:19:55;10.70;72.20
44063;DHT22;29727;47.606;19.130;2023-02-22T01:22:22;10.70;72.10
44063;DHT22;29727;47.606;19.130;2023-02-22T01:24:49;10.80;72.00
44063;DHT22;29727;47.606;19.130;2023-02-22T01:27:15;10.80;71.90
44063;DHT22;29727;47.606;19.130;2023-02-22T01:29:41;10.90;71.80
44063;DHT22;29727;47.606;19.130;2023-02-22T01:32:06;10.90;71.60
44063;DHT22;29727;47.606;19.130;2023-02-22T01:34:32;10.90;71.60
44063;DHT22;29727;47.606;19.130;2023-02-22T01:36:59;11.00;71.50
44063;DHT22;29727;47.606;19.130;2023-02-22T01:39:26;11.10;71.50
44063;DHT22;29727;47.606;19.130;2023-02-22T01:41:52;11.10;71.40
44063;DHT22;29727;47.606;19.130;2023-02-22T01:44:34;11.20;71.20
44063;DHT22;29727;47.606;19.130;2023-02-22T01:47:02;11.20;71.00
44063;DHT22;29727;47.606;19.130;2023-02-22T01:49:41;11.30;70.80
44063;DHT22;29727;47.606;19.130;2023-02-22T01:52:12;11.30;70.50
44063;DHT22;29727;47.606;19.130;2023-02-22T01:54:43;11.40;70.60
44063;DHT22;29727;47.606;19.130;2023-02-22T01:57:21;11.40;70.40
44063;DHT22;29727;47.606;19.130;2023-02-22T01:59:53;11.40;70.30
44063;DHT22;29727;47.606;19.130;2023-02-22T02:02:20;11.50;70.20
44063;DHT22;29727;47.606;19.130;2023-02-22T02:04:47;11.50;69.90
44063;DHT22;29727;47.606;19.130;2023-02-22T02:07:16;11.60;70.10
44063;DHT22;29727;47.606;19.130;2023-02-22T02:09:53;11.60;69.90
44063;DHT22;29727;47.606;19.130;2023-02-22T02:12:22;11.60;69.70
44063;DHT22;29727;47.606;19.130;2023-02-22T02:14:48;11.60;69.70
44063;DHT22;29727;47.606;19.130;2023-02-22T02:17:16;11.60;69.70
44063;DHT22;29727;47.606;19.130;2023-02-22T02:20:00;11.70;69.60
44063;DHT22;29727;47.606;19.130;2023-02-22T02:25:57;11.70;69.30
44063;DHT22;29727;47.606;19.130;2023-02-22T02:28:50;11.70;69.30
44063;DHT22;29727;47.606;19.130;2023-02-22T02:33:55;11.70;69.20
44063;DHT22;29727;47.606;19.130;2023-02-22T02:36:30;11.70;69.20
44063;DHT22;29727;47.606;19.130;2023-02-22T02:41:34;11.70;69.00
44063;DHT22;29727;47.606;19.130;2023-02-22T02:46:44;11.70;68.70
44063;DHT22;29727;47.606;19.130;2023-02-22T02:49:17;11.60;68.70
44063;DHT22;29727;47.606;19.130;2023-02-22T02:51:50;11.60;68.80
44063;DHT22;29727;47.606;19.130;2023-02-22T02:54:17;11.60;68.60
44063;DHT22;29727;47.606;19.130;2023-02-22T02:56:44;11.50;68.00
44063;DHT22;29727;47.606;19.130;2023-02-22T02:59:32;11.50;68.60
44063;DHT22;29727;47.606;19.130;2023-02-22T03:07:26;11.40;68.60
44063;DHT22;29727;47.606;19.130;2023-02-22T03:18:36;11.20;69.00
44063;DHT22;29727;47.606;19.130;2023-02-22T03:21:33;11.20;69.20
44063;DHT22;29727;47.606;19.130;2023-02-22T03:27:19;11.10;69.90
44063;DHT22;29727;47.606;19.130;2023-02-22T03:29:50;11.10;69.90
44063;DHT22;29727;47.606;19.130;2023-02-22T03:32:24;11.10;69.90
44063;DHT22;29727;47.606;19.130;2023-02-22T03:35:07;11.10;70.00
44063;DHT22;29727;47.606;19.130;2023-02-22T03:37:41;11.10;70.30
44063;DHT22;29727;47.606;19.130;2023-02-22T03:40:14;11.00;71.10
44063;DHT22;29727;47.606;19.130;2023-02-22T03:42:47;11.00;70.60
44063;DHT22;29727;47.606;19.130;2023-02-22T03:45:16;11.00;70.70
44063;DHT22;29727;47.606;19.130;2023-02-22T03:47:50;11.00;70.90
44063;DHT22;29727;47.606;19.130;2023-02-22T03:50:20;11.00;70.80
44063;DHT22;29727;47.606;19.130;2023-02-22T03:52:47;11.00;70.70
44063;DHT22;29727;47.606;19.130;2023-02-22T03:55:14;11.00;70.60
44063;DHT22;29727;47.606;19.130;2023-02-22T03:57:45;11.00;70.20
44063;DHT22;29727;47.606;19.130;2023-02-22T04:00:16;11.00;70.60
44063;DHT22;29727;47.606;19.130;2023-02-22T04:02:43;11.00;71.20
44063;DHT22;29727;47.606;19.130;2023-02-22T04:05:09;10.90;71.70
44063;DHT22;29727;47.606;19.130;2023-02-22T04:07:34;10.90;72.00
44063;DHT22;29727;47.606;19.130;2023-02-22T04:10:00;10.80;72.00
44063;DHT22;29727;47.606;19.130;2023-02-22T04:12:33;10.80;72.30
44063;DHT22;29727;47.606;19.130;2023-02-22T04:14:59;10.80;72.30
44063;DHT22;29727;47.606;19.130;2023-02-22T04:17:25;10.80;71.70
44063;DHT22;29727;47.606;19.130;2023-02-22T04:19:51;10.70;72.10
44063;DHT22;29727;47.606;19.130;2023-02-22T04:22:16;10.70;72.20
44063;DHT22;29727;47.606;19.130;2023-02-22T04:24:42;10.70;72.30
44063;DHT22;29727;47.606;19.130;2023-02-22T04:27:07;10.70;72.80
44063;DHT22;29727;47.606;19.130;2023-02-22T04:29:33;10.70;72.90
44063;DHT22;29727;47.606;19.130;2023-02-22T04:31:59;10.70;72.70
44063;DHT22;29727;47.606;19.130;2023-02-22T04:34:24;10.70;72.60
44063;DHT22;29727;47.606;19.130;2023-02-22T04:36:50;10.70;72.40
44063;DHT22;29727;47.606;19.130;2023-02-22T04:39:16;10.70;72.00
44063;DHT22;29727;47.606;19.130;2023-02-22T04:41:42;10.70;71.80
44063;DHT22;29727;47.606;19.130;2023-02-22T04:44:08;10.70;71.70
44063;DHT22;29727;47.606;19.130;2023-02-22T04:46:33;10.70;71.40
44063;DHT22;29727;47.606;19.130;2023-02-22T04:48:59;10.70;71.20
44063;DHT22;29727;47.606;19.130;2023-02-22T04:51:25;10.60;70.90
44063;DHT22;29727;47.606;19.130;2023-02-22T04:53:51;10.60;71.00
44063;DHT22;29727;47.606;19.130;2023-02-22T04:56:17;10.60;70.80
44063;DHT22;29727;47.606;19.130;2023-02-22T04:58:43;10.60;70.70
44063;DHT22;29727;47.606;19.130;2023-02-22T05:01:09;10.60;70.60
44063;DHT22;29727;47.606;19.130;2023-02-22T05:03:36;10.50;70.60
44063;DHT22;29727;47.606;19.130;2023-02-22T05:06:02;10.50;70.60
44063;DHT22;29727;47.606;19.130;2023-02-22T05:08:28;10.40;70.50
44063;DHT22;29727;47.606;19.130;2023-02-22T05:10:54;10.40;70.50
44063;DHT22;29727;47.606;19.130;2023-02-22T05:13:20;10.40;70.50
44063;DHT22;29727;47.606;19.130;2023-02-22T05:15:46;10.30;70.50
44063;DHT22;29727;47.606;19.130;2023-02-22T05:18:13;10.30;70.40
44063;DHT22;29727;47.606;19.130;2023-02-22T05:20:39;10.20;70.30
44063;DHT22;29727;47.606;19.130;2023-02-22T05:23:04;10.20;69.70
44063;DHT22;29727;47.606;19.130;2023-02-22T05:25:31;10.10;69.90
44063;DHT22;29727;47.606;19.130;2023-02-22T05:28:16;10.10;69.90
44063;DHT22;29727;47.606;19.130;2023-02-22T05:30:41;10.00;69.90
44063;DHT22;29727;47.606;19.130;2023-02-22T05:33:08;10.00;70.10
44063;DHT22;29727;47.606;19.130;2023-02-22T05:35:34;9.90;70.30
44063;DHT22;29727;47.606;19.130;2023-02-22T05:38:02;9.80;70.80
44063;DHT22;29727;47.606;19.130;2023-02-22T05:40:28;9.70;71.00
44063;DHT22;29727;47.606;19.130;2023-02-22T05:42:55;9.70;71.00
44063;DHT22;29727;47.606;19.130;2023-02-22T05:45:23;9.70;69.70
44063;DHT22;29727;47.606;19.130;2023-02-22T05:47:50;9.70;70.30
44063;DHT22;29727;47.606;19.130;2023-02-22T05:50:16;9.60;70.50
44063;DHT22;29727;47.606;19.130;2023-02-22T05:52:42;9.60;70.50
44063;DHT22;29727;47.606;19.130;2023-02-22T05:55:09;9.50;70.70
44063;DHT22;29727;47.606;19.130;2023-02-22T05:57:35;9.50;70.10
44063;DHT22;29727;47.606;19.130;2023-02-22T06:00:03;9.50;70.60
44063;DHT22;29727;47.606;19.130;2023-02-22T06:02:29;9.40;71.00
44063;DHT22;29727;47.606;19.130;2023-02-22T06:04:54;9.30;71.20
44063;DHT22;29727;47.606;19.130;2023-02-22T06:07:20;9.30;71.50
44063;DHT22;29727;47.606;19.130;2023-02-22T06:09:47;9.30;72.00
44063;DHT22;29727;47.606;19.130;2023-02-22T06:12:12;9.20;71.50
44063;DHT22;29727;47.606;19.130;2023-02-22T06:14:38;9.20;71.60
44063;DHT22;29727;47.606;19.130;2023-02-22T06:17:05;9.20;71.60
44063;DHT22;29727;47.606;19.130;2023-02-22T06:19:31;9.20;71.90
44063;DHT22;29727;47.606;19.130;2023-02-22T06:21:57;9.20;72.10
44063;DHT22;29727;47.606;19.130;2023-02-22T06:24:24;9.20;72.90
44063;DHT22;29727;47.606;19.130;2023-02-22T06:26:58;9.20;72.50
44063;DHT22;29727;47.606;19.130;2023-02-22T06:29:25;9.30;72.90
44063;DHT22;29727;47.606;19.130;2023-02-22T06:31:51;9.30;73.00
44063;DHT22;29727;47.606;19.130;2023-02-22T06:34:17;9.30;73.00
44063;DHT22;29727;47.606;19.130;2023-02-22T06:36:43;9.30;73.00
44063;DHT22;29727;47.606;19.130;2023-02-22T06:39:09;9.40;73.00
44063;DHT22;29727;47.606;19.130;2023-02-22T06:41:41;9.40;73.10
44063;DHT22;29727;47.606;19.130;2023-02-22T06:44:07;9.40;73.40
44063;DHT22;29727;47.606;19.130;2023-02-22T06:46:33;9.40;73.20
44063;DHT22;29727;47.606;19.130;2023-02-22T06:48:59;9.50;73.40
44063;DHT22;29727;47.606;19.130;2023-02-22T06:51:28;9.50;73.30
44063;DHT22;29727;47.606;19.130;2023-02-22T06:53:54;9.50;73.50
44063;DHT22;29727;47.606;19.130;2023-02-22T06:56:20;9.60;74.20
44063;DHT22;29727;47.606;19.130;2023-02-22T06:58:45;9.60;73.50
44063;DHT22;29727;47.606;19.130;2023-02-22T07:01:11;9.60;73.50
44063;DHT22;29727;47.606;19.130;2023-02-22T07:03:37;9.70;73.60
44063;DHT22;29727;47.606;19.130;2023-02-22T07:06:05;9.80;73.60
44063;DHT22;29727;47.606;19.130;2023-02-22T07:08:30;9.90;73.70
44063;DHT22;29727;47.606;19.130;2023-02-22T07:10:56;9.90;73.60
44063;DHT22;29727;47.606;19.130;2023-02-22T07:13:22;9.90;73.50
44063;DHT22;29727;47.606;19.130;2023-02-22T07:15:47;10.00;73.40
44063;DHT22;29727;47.606;19.130;2023-02-22T07:18:13;10.10;73.40
44063;DHT22;29727;47.606;19.130;2023-02-22T07:20:40;10.10;73.30
44063;DHT22;29727;47.606;19.130;2023-02-22T07:23:06;10.20;73.40
44063;DHT22;29727;47.606;19.130;2023-02-22T07:25:32;10.20;73.30
44063;DHT22;29727;47.606;19.130;2023-02-22T07:27:58;10.30;73.30
44063;DHT22;29727;47.606;19.130;2023-02-22T07:30:29;10.40;73.30
44063;DHT22;29727;47.606;19.130;2023-02-22T07:32:57;10.40;73.30
44063;DHT22;29727;47.606;19.130;2023-02-22T07:37:50;10.60;73.30
44063;DHT22;29727;47.606;19.130;2023-02-22T07:40:17;10.60;73.30
44063;DHT22;29727;47.606;19.130;2023-02-22T07:43:00;10.70;73.40
44063;DHT22;29727;47.606;19.130;2023-02-22T07:45:31;10.80;73.60
44063;DHT22;29727;47.606;19.130;2023-02-22T07:47:58;10.90;73.60
44063;DHT22;29727;47.606;19.130;2023-02-22T07:50:26;11.00;73.60
44063;DHT22;29727;47.606;19.130;2023-02-22T07:52:53;11.00;73.30
44063;DHT22;29727;47.606;19.130;2023-02-22T07:55:22;11.10;73.20
44063;DHT22;29727;47.606;19.130;2023-02-22T07:57:49;11.20;73.30
44063;DHT22;29727;47.606;19.130;2023-02-22T08:00:24;11.30;72.80
44063;DHT22;29727;47.606;19.130;2023-02-22T08:02:50;11.40;72.70
44063;DHT22;29727;47.606;19.130;2023-02-22T08:05:17;11.40;72.50
44063;DHT22;29727;47.606;19.130;2023-02-22T08:07:42;11.50;72.50
44063;DHT22;29727;47.606;19.130;2023-02-22T08:10:09;11.50;72.50
44063;DHT22;29727;47.606;19.130;2023-02-22T08:12:36;11.60;72.70
44063;DHT22;29727;47.606;19.130;2023-02-22T08:15:03;11.70;72.60
44063;DHT22;29727;47.606;19.130;2023-02-22T08:17:29;11.70;72.40
44063;DHT22;29727;47.606;19.130;2023-02-22T08:19:55;11.80;72.00
44063;DHT22;29727;47.606;19.130;2023-02-22T08:22:21;11.90;72.10
44063;DHT22;29727;47.606;19.130;2023-02-22T08:24:47;12.00;71.60
44063;DHT22;29727;47.606;19.130;2023-02-22T08:27:12;12.00;71.90
44063;DHT22;29727;47.606;19.130;2023-02-22T08:29:38;12.10;71.00
44063;DHT22;29727;47.606;19.130;2023-02-22T08:32:04;12.10;70.70
44063;DHT22;29727;47.606;19.130;2023-02-22T08:34:29;12.20;71.40
44063;DHT22;29727;47.606;19.130;2023-02-22T08:36:55;12.30;71.70
44063;DHT22;29727;47.606;19.130;2023-02-22T08:39:21;12.30;71.40
44063;DHT22;29727;47.606;19.130;2023-02-22T08:41:47;12.40;70.80
44063;DHT22;29727;47.606;19.130;2023-02-22T08:44:12;12.50;70.50
44063;DHT22;29727;47.606;19.130;2023-02-22T08:46:38;12.60;69.50
44063;DHT22;29727;47.606;19.130;2023-02-22T08:49:04;12.60;69.30
44063;DHT22;29727;47.606;19.130;2023-02-22T08:51:34;12.70;70.20
44063;DHT22;29727;47.606;19.130;2023-02-22T08:54:01;12.80;70.50
44063;DHT22;29727;47.606;19.130;2023-02-22T08:56:28;12.90;69.80
44063;DHT22;29727;47.606;19.130;2023-02-22T08:58:55;12.90;69.80
44063;DHT22;29727;47.606;19.130;2023-02-22T09:01:22;13.00;69.80
44063;DHT22;29727;47.606;19.130;2023-02-22T09:03:49;13.10;68.60
44063;DHT22;29727;47.606;19.130;2023-02-22T09:06:15;13.20;68.50
44063;DHT22;29727;47.606;19.130;2023-02-22T09:08:41;13.20;69.10
44063;DHT22;29727;47.606;19.130;2023-02-22T09:11:06;13.30;68.70
44063;DHT22;29727;47.606;19.130;2023-02-22T09:13:32;13.40;68.40
44063;DHT22;29727;47.606;19.130;2023-02-22T09:15:57;13.50;68.10
44063;DHT22;29727;47.606;19.130;2023-02-22T09:18:23;13.50;68.20
44063;DHT22;29727;47.606;19.130;2023-02-22T09:20:51;13.50;67.50
44063;DHT22;29727;47.606;19.130;2023-02-22T09:23:17;13.60;67.10
44063;DHT22;29727;47.606;19.130;2023-02-22T09:25:48;13.70;66.70
44063;DHT22;29727;47.606;19.130;2023-02-22T09:28:14;13.70;66.60
44063;DHT22;29727;47.606;19.130;2023-02-22T09:30:41;13.70;66.60
44063;DHT22;29727;47.606;19.130;2023-02-22T09:33:17;13.80;65.40
44063;DHT22;29727;47.606;19.130;2023-02-22T09:35:45;13.80;66.00
44063;DHT22;29727;47.606;19.130;2023-02-22T09:38:13;13.90;65.90
44063;DHT22;29727;47.606;19.130;2023-02-22T09:40:45;13.90;65.90
44063;DHT22;29727;47.606;19.130;2023-02-22T09:43:48;13.90;65.60
44063;DHT22;29727;47.606;19.130;2023-02-22T09:46:32;14.00;65.90
44063;DHT22;29727;47.606;19.130;2023-02-22T09:49:04;14.10;65.50
44063;DHT22;29727;47.606;19.130;2023-02-22T09:51:53;14.10;65.80
44063;DHT22;29727;47.606;19.130;2023-02-22T09:54:27;14.20;65.40
44063;DHT22;29727;47.606;19.130;2023-02-22T09:56:55;14.20;64.80
44063;DHT22;29727;47.606;19.130;2023-02-22T09:59:28;14.30;64.60
44063;DHT22;29727;47.606;19.130;2023-02-22T10:02:04;14.30;65.20
44063;DHT22;29727;47.606;19.130;2023-02-22T10:05:26;14.50;65.00
44063;DHT22;29727;47.606;19.130;2023-02-22T10:07:43;14.60;63.80
44063;DHT22;29727;47.606;19.130;2023-02-22T10:10:18;14.80;63.40
44063;DHT22;29727;47.606;19.130;2023-02-22T10:20:56;15.40;61.20
44063;DHT22;29727;47.606;19.130;2023-02-22T10:23:35;15.40;61.70
44063;DHT22;29727;47.606;19.130;2023-02-22T10:28:38;15.70;60.80
44063;DHT22;29727;47.606;19.130;2023-02-22T10:31:07;15.80;60.30
44063;DHT22;29727;47.606;19.130;2023-02-22T10:33:47;15.90;60.20
44063;DHT22;29727;47.606;19.130;2023-02-22T10:36:19;15.90;60.20
44063;DHT22;29727;47.606;19.130;2023-02-22T10:38:55;15.90;60.50
44063;DHT22;29727;47.606;19.130;2023-02-22T10:41:33;15.90;60.00
44063;DHT22;29727;47.606;19.130;2023-02-22T10:44:01;15.90;59.70
44063;DHT22;29727;47.606;19.130;2023-02-22T10:46:29;15.90;59.90
44063;DHT22;29727;47.606;19.130;2023-02-22T10:49:00;15.90;60.00
44063;DHT22;29727;47.606;19.130;2023-02-22T10:51:27;15.90;60.00
44063;DHT22;29727;47.606;19.130;2023-02-22T10:54:21;15.80;60.10
44063;DHT22;29727;47.606;19.130;2023-02-22T10:56:53;15.80;59.70
44063;DHT22;29727;47.606;19.130;2023-02-22T10:59:40;15.80;59.90
44063;DHT22;29727;47.606;19.130;2023-02-22T11:02:28;15.80;59.90
44063;DHT22;29727;47.606;19.130;2023-02-22T11:04:57;15.70;59.90
44063;DHT22;29727;47.606;19.130;2023-02-22T11:07:43;15.70;60.00
44063;DHT22;29727;47.606;19.130;2023-02-22T11:10:08;15.60;60.30
44063;DHT22;29727;47.606;19.130;2023-02-22T11:12:36;15.60;60.30
44063;DHT22;29727;47.606;19.130;2023-02-22T11:17:49;15.60;59.90
44063;DHT22;29727;47.606;19.130;2023-02-22T11:20:27;15.50;60.40
44063;DHT22;29727;47.606;19.130;2023-02-22T11:22:55;15.50;60.60
44063;DHT22;29727;47.606;19.130;2023-02-22T11:25:33;15.50;60.40
44063;DHT22;29727;47.606;19.130;2023-02-22T11:28:14;15.60;60.20
44063;DHT22;29727;47.606;19.130;2023-02-22T11:30:43;15.60;60.10
44063;DHT22;29727;47.606;19.130;2023-02-22T11:36:02;15.60;59.90
44063;DHT22;29727;47.606;19.130;2023-02-22T11:38:34;15.70;59.70
44063;DHT22;29727;47.606;19.130;2023-02-22T11:41:17;15.70;59.60
44063;DHT22;29727;47.606;19.130;2023-02-22T11:43:48;15.70;59.40
44063;DHT22;29727;47.606;19.130;2023-02-22T11:46:21;15.70;59.00
44063;DHT22;29727;47.606;19.130;2023-02-22T11:51:44;15.70;58.90
44063;DHT22;29727;47.606;19.130;2023-02-22T11:54:27;15.70;59.00
44063;DHT22;29727;47.606;19.130;2023-02-22T12:05:08;15.70;58.60
44063;DHT22;29727;47.606;19.130;2023-02-22T12:18:58;15.70;59.10
44063;DHT22;29727;47.606;19.130;2023-02-22T12:21:25;15.70;59.30
44063;DHT22;29727;47.606;19.130;2023-02-22T12:24:01;15.70;59.60
44063;DHT22;29727;47.606;19.130;2023-02-22T12:26:35;15.80;59.30
44063;DHT22;29727;47.606;19.130;2023-02-22T12:31:56;15.70;59.90
44063;DHT22;29727;47.606;19.130;2023-02-22T12:34:45;15.70;59.50
44063;DHT22;29727;47.606;19.130;2023-02-22T12:45:12;15.60;59.80
44063;DHT22;29727;47.606;19.130;2023-02-22T12:48:07;15.60;60.20
44063;DHT22;29727;47.606;19.130;2023-02-22T12:50:34;15.60;60.00
44063;DHT22;29727;47.606;19.130;2023-02-22T13:01:35;15.50;60.40
44063;DHT22;29727;47.606;19.130;2023-02-22T13:04:04;15.40;60.60
44063;DHT22;29727;47.606;19.130;2023-02-22T13:11:31;15.40;60.10
44063;DHT22;29727;47.606;19.130;2023-02-22T13:19:45;15.50;59.70
44063;DHT22;29727;47.606;19.130;2023-02-22T13:22:22;15.50;59.50
44063;DHT22;29727;47.606;19.130;2023-02-22T13:30:19;15.40;60.70
44063;DHT22;29727;47.606;19.130;2023-02-22T13:35:33;15.40;60.60
44063;DHT22;29727;47.606;19.130;2023-02-22T13:52:47;15.40;61.30
44063;DHT22;29727;47.606;19.130;2023-02-22T13:55:51;15.40;60.90
44063;DHT22;29727;47.606;19.130;2023-02-22T13:58:11;15.40;60.10
44063;DHT22;29727;47.606;19.130;2023-02-22T14:00:46;15.40;60.60
44063;DHT22;29727;47.606;19.130;2023-02-22T14:10:51;15.30;60.90
44063;DHT22;29727;47.606;19.130;2023-02-22T14:13:18;15.30;61.40
44063;DHT22;29727;47.606;19.130;2023-02-22T14:18:29;15.30;61.70
44063;DHT22;29727;47.606;19.130;2023-02-22T14:21:12;15.20;61.80
44063;DHT22;29727;47.606;19.130;2023-02-22T14:23:52;15.30;61.90
44063;DHT22;29727;47.606;19.130;2023-02-22T14:26:34;15.20;61.60
44063;DHT22;29727;47.606;19.130;2023-02-22T14:29:15;15.20;61.90
44063;DHT22;29727;47.606;19.130;2023-02-22T14:42:34;15.10;62.40
44063;DHT22;29727;47.606;19.130;2023-02-22T14:47:57;15.10;62.50
44063;DHT22;29727;47.606;19.130;2023-02-22T14:53:14;15.10;62.20
44063;DHT22;29727;47.606;19.130;2023-02-22T14:59:10;15.00;62.00
44063;DHT22;29727;47.606;19.130;2023-02-22T15:01:36;15.00;62.20
44063;DHT22;29727;47.606;19.130;2023-02-22T15:04:24;15.00;62.10
44063;DHT22;29727;47.606;19.130;2023-02-22T15:06:51;15.00;62.30
44063;DHT22;29727;47.606;19.130;2023-02-22T15:09:21;15.00;62.40
44063;DHT22;29727;47.606;19.130;2023-02-22T15:12:10;15.00;62.40
44063;DHT22;29727;47.606;19.130;2023-02-22T15:14:38;15.00;62.20
44063;DHT22;29727;47.606;19.130;2023-02-22T15:17:12;15.00;62.20
44063;DHT22;29727;47.606;19.130;2023-02-22T15:19:41;15.00;62.40
44063;DHT22;29727;47.606;19.130;2023-02-22T15:24:53;15.00;62.70
44063;DHT22;29727;47.606;19.130;2023-02-22T15:27:21;14.90;62.40
44063;DHT22;29727;47.606;19.130;2023-02-22T15:29:48;15.00;62.50
44063;DHT22;29727;47.606;19.130;2023-02-22T15:32:19;15.00;62.70
44063;DHT22;29727;47.606;19.130;2023-02-22T15:34:54;15.00;62.50
44063;DHT22;29727;47.606;19.130;2023-02-22T15:37:23;15.00;62.50
44063;DHT22;29727;47.606;19.130;2023-02-22T15:40:03;15.00;63.10
44063;DHT22;29727;47.606;19.130;2023-02-22T15:42:29;15.00;62.20
44063;DHT22;29727;47.606;19.130;2023-02-22T15:44:56;14.90;62.00
44063;DHT22;29727;47.606;19.130;2023-02-22T15:47:26;14.90;61.90
44063;DHT22;29727;47.606;19.130;2023-02-22T15:53:17;14.80;61.90
44063;DHT22;29727;47.606;19.130;2023-02-22T15:55:55;14.70;62.30
44063;DHT22;29727;47.606;19.130;2023-02-22T15:58:23;14.60;62.50
44063;DHT22;29727;47.606;19.130;2023-02-22T16:01:08;14.60;62.70
44063;DHT22;29727;47.606;19.130;2023-02-22T16:03:43;14.60;61.40
44063;DHT22;29727;47.606;19.130;2023-02-22T16:08:54;14.50;62.30
44063;DHT22;29727;47.606;19.130;2023-02-22T16:11:30;14.50;61.60
44063;DHT22;29727;47.606;19.130;2023-02-22T16:14:00;14.50;61.30
44063;DHT22;29727;47.606;19.130;2023-02-22T16:16:32;14.40;61.80
44063;DHT22;29727;47.606;19.130;2023-02-22T16:21:53;14.40;61.20
44063;DHT22;29727;47.606;19.130;2023-02-22T16:24:32;14.40;61.20
44063;DHT22;29727;47.606;19.130;2023-02-22T16:29:43;14.30;60.30
44063;DHT22;29727;47.606;19.130;2023-02-22T16:32:09;14.30;60.70
44063;DHT22;29727;47.606;19.130;2023-02-22T16:34:36;14.30;60.60
44063;DHT22;29727;47.606;19.130;2023-02-22T16:37:02;14.30;60.80
44063;DHT22;29727;47.606;19.130;2023-02-22T16:39:31;14.20;60.50
44063;DHT22;29727;47.606;19.130;2023-02-22T16:42:03;14.20;60.70
44063;DHT22;29727;47.606;19.130;2023-02-22T16:44:29;14.20;60.40
44063;DHT22;29727;47.606;19.130;2023-02-22T16:46:57;14.20;60.30
44063;DHT22;29727;47.606;19.130;2023-02-22T16:49:24;14.20;60.40
44063;DHT22;29727;47.606;19.130;2023-02-22T16:52:00;14.20;60.20
44063;DHT22;29727;47.606;19.130;2023-02-22T16:54:29;14.20;60.00
44063;DHT22;29727;47.606;19.130;2023-02-22T16:56:56;14.10;59.90
44063;DHT22;29727;47.606;19.130;2023-02-22T16:59:24;14.10;59.90
44063;DHT22;29727;47.606;19.130;2023-02-22T17:01:50;14.20;59.90
44063;DHT22;29727;47.606;19.130;2023-02-22T17:04:20;14.10;60.00
44063;DHT22;29727;47.606;19.130;2023-02-22T17:06:47;14.10;59.70
44063;DHT22;29727;47.606;19.130;2023-02-22T17:09:13;14.10;59.80
44063;DHT22;29727;47.606;19.130;2023-02-22T17:11:40;14.00;59.50
44063;DHT22;29727;47.606;19.130;2023-02-22T17:14:06;14.00;59.80
44063;DHT22;29727;47.606;19.130;2023-02-22T17:16:31;14.00;59.60
44063;DHT22;29727;47.606;19.130;2023-02-22T17:18:57;13.90;60.10
44063;DHT22;29727;47.606;19.130;2023-02-22T17:21:23;13.80;60.20
44063;DHT22;29727;47.606;19.130;2023-02-22T17:23:48;13.80;60.00
44063;DHT22;29727;47.606;19.130;2023-02-22T17:26:15;13.80;60.10
44063;DHT22;29727;47.606;19.130;2023-02-22T17:28:41;13.80;60.40
44063;DHT22;29727;47.606;19.130;2023-02-22T17:31:19;13.70;60.00
44063;DHT22;29727;47.606;19.130;2023-02-22T17:33:46;13.70;59.90
44063;DHT22;29727;47.606;19.130;2023-02-22T17:36:11;13.70;60.00
44063;DHT22;29727;47.606;19.130;2023-02-22T17:38:37;13.70;59.90
44063;DHT22;29727;47.606;19.130;2023-02-22T17:41:06;13.60;59.70
44063;DHT22;29727;47.606;19.130;2023-02-22T17:43:32;13.60;59.80
44063;DHT22;29727;47.606;19.130;2023-02-22T17:45:58;13.60;59.60
44063;DHT22;29727;47.606;19.130;2023-02-22T17:48:24;13.60;59.60
44063;DHT22;29727;47.606;19.130;2023-02-22T17:50:51;13.60;59.50
44063;DHT22;29727;47.606;19.130;2023-02-22T17:53:18;13.60;59.60
44063;DHT22;29727;47.606;19.130;2023-02-22T17:55:47;13.50;59.90
44063;DHT22;29727;47.606;19.130;2023-02-22T17:58:13;13.40;60.10
44063;DHT22;29727;47.606;19.130;2023-02-22T18:00:46;13.30;60.30
44063;DHT22;29727;47.606;19.130;2023-02-22T18:03:15;13.30;60.40
44063;DHT22;29727;47.606;19.130;2023-02-22T18:05:49;13.20;60.70
44063;DHT22;29727;47.606;19.130;2023-02-22T18:08:15;13.10;60.80
44063;DHT22;29727;47.606;19.130;2023-02-22T18:10:42;13.10;61.50
44063;DHT22;29727;47.606;19.130;2023-02-22T18:13:08;13.10;61.80
44063;DHT22;29727;47.606;19.130;2023-02-22T18:15:38;13.10;61.50
44063;DHT22;29727;47.606;19.130;2023-02-22T18:18:04;13.00;61.30
44063;DHT22;29727;47.606;19.130;2023-02-22T18:20:30;13.00;61.50